Crystal Serenity — C6SY3 — position and weather

sailwx.info

Track history (hours):
 
Tides and Currents Weather Stations Pressure Air Temp Water Temp Dewpoint Dewpoint Depression Visibility Wind Speed Wind Dir Waves Ship Positions

Crystal Serenity

Operator: Crystal Cruises

Last reported at 2017-Apr-24 08:00 UTC. Time now 2017-Apr-24 11:17 UTC.
Position N 09°06' W 084°48'.

Length 250 m; draft 7.5 m.

Type: Passenger vessel. MMSI: 311536000.

Barometer 1009.0 mb
Air temperature 30.0 ° C

Date/timePositionNaut miles runAvg speedWind from/ knotsBaromVisibWave heightAir tempDewpointWater temp
2017-Apr-24 08:00N 09°06' W 084°48'27 6.6 1009.0 30.0
2017-Apr-24 04:00N 08°54' W 084°24'72 3.0 270 / 51008.010.8 28.0 28.0
2017-Apr-23 04:00N 08°00' W 083°36'6410.7 250 / 51008.010.8 28.0 26.0
2017-Apr-22 22:00N 07°24' W 082°42'6115.4 200 / 151008.0 5.4 30.0 28.0
2017-Apr-22 18:00N 06°54' W 081°48'8311.9 150 / 101011.010.8 31.0 28.0
2017-Apr-22 11:00N 06°54' W 080°24'1211.9 090 / 51010.0 5.4 27.0 27.0
2017-Apr-22 10:00N 06°54' W 080°12'8612.3 1011.0 28.0
2017-Apr-22 03:00N 08°06' W 079°24'48 8.1 180 / 151015.010.8 27.0 27.0
2017-Apr-21 21:00N 08°54' W 079°30'0 0.0 140 / 81009.010.8 32.0 28.0
2017-Apr-21 03:00N 08°54' W 079°30'27 2.8 180 / 101010.0 28.0 28.0
2017-Apr-20 17:06N 09°11' W 079°52'2 6.3
2017-Apr-20 16:43N 09°12' W 079°54'1 6.1
2017-Apr-20 16:29N 09°13' W 079°55'2 3.4
2017-Apr-20 15:52N 09°15' W 079°55'0 0.0
2017-Apr-20 15:26N 09°15' W 079°55'0 0.0
2017-Apr-20 15:01N 09°15' W 079°55'0 0.0
2017-Apr-20 14:28N 09°15' W 079°55'1 1.4
2017-Apr-20 13:30N 09°16' W 079°55'0 0.4
2017-Apr-20 12:46N 09°16' W 079°55'0 0.4
2017-Apr-20 12:21N 09°17' W 079°55'0 1.1
2017-Apr-20 12:00N 09°17' W 079°55'2 4.1
2017-Apr-20 11:30N 09°19' W 079°55'3 5.4
2017-Apr-20 11:00N 09°22' W 079°55'2 4.9
2017-Apr-20 10:30N 09°24' W 079°55'712.7
2017-Apr-20 09:59N 09°30' W 079°53'2512.7
2017-Apr-20 08:00N 09°42' W 079°30'10921.8 250 / 91012.010.8 28.0 28.0
2017-Apr-20 03:00N 10°06' W 077°42'9518.9 020 / 101015.010.8 30.0 30.0
2017-Apr-19 22:00N 10°12' W 076°06'160 8.4 300 / 121011.0 5.4 30.0 28.0
2017-Apr-19 03:00N 12°48' W 075°30'7314.6 090 / 281013.010.8 28.0 28.0
2017-Apr-18 22:00N 14°00' W 075°18'9719.3 080 / 281017.0 5.4 28.0 27.0
2017-Apr-18 17:00N 15°36' W 075°06'10918.2 090 / 251015.0 5.4 28.0 28.0
2017-Apr-18 11:00N 17°24' W 074°48'18020.0 090 / 231014.0 5.4 26.0 27.0
2017-Apr-18 02:00N 20°18' W 074°00'6716.7 050 / 301018.010.8 26.0 26.0
2017-Apr-17 22:00N 20°54' W 075°00'21519.6 070 / 301015.0 5.4 26.0 25.0
2017-Apr-17 11:00N 22°36' W 078°24'3316.5 090 / 271017.0 5.4 26.0 25.0
2017-Apr-17 09:00N 22°54' W 078°54'13819.7 090 / 261016.0 25.0
2017-Apr-17 02:00N 24°00' W 081°06'100 6.2 090 / 251018.0 5.4 26.0 26.0
2017-Apr-16 10:00N 22°24' W 081°36'122122.0 100 / 201018.0 5.4 26.0 25.0
2017-Apr-16 09:00N 24°24' W 081°12'9112.2 100 / 201022.0 25.0
2017-Apr-16 01:32N 25°28' W 080°01'115.1
2017-Apr-16 01:27N 25°29' W 080°01'715.2
2017-Apr-16 01:00N 25°36' W 080°01'713.8
2017-Apr-16 00:30N 25°43' W 080°02'4 8.7
2017-Apr-16 00:01N 25°46' W 080°06'3 6.8
2017-Apr-15 23:30N 25°46' W 080°10'1 2.3
2017-Apr-15 23:00N 25°46' W 080°11'0 0.0
2017-Apr-15 22:28N 25°46' W 080°11'0 0.0
2017-Apr-15 21:58N 25°46' W 080°11'0 0.0
2017-Apr-15 21:28N 25°46' W 080°11'0 0.0
2017-Apr-15 20:58N 25°46' W 080°11'0 0.0
2017-Apr-15 20:28N 25°46' W 080°11'0 0.0
2017-Apr-15 19:58N 25°46' W 080°11'0 0.0
2017-Apr-15 19:28N 25°46' W 080°11'0 0.0
2017-Apr-15 18:58N 25°46' W 080°11'0 0.0
2017-Apr-15 18:28N 25°46' W 080°11'0 0.0
2017-Apr-15 17:58N 25°46' W 080°11'0 0.0
2017-Apr-15 17:28N 25°46' W 080°11'0 0.0
2017-Apr-15 16:58N 25°46' W 080°11'0 0.0
2017-Apr-15 16:28N 25°46' W 080°11'0 0.0
2017-Apr-15 15:55N 25°46' W 080°11'0 0.0
2017-Apr-15 15:28N 25°46' W 080°11'0 0.0
2017-Apr-15 14:58N 25°46' W 080°11'0 0.0
2017-Apr-15 14:25N 25°46' W 080°11'0 0.0
2017-Apr-15 13:28N 25°46' W 080°11'0 0.0
2017-Apr-15 12:58N 25°46' W 080°11'0 0.0
2017-Apr-15 12:28N 25°46' W 080°11'0 0.0
2017-Apr-15 11:58N 25°46' W 080°11'0 0.0
2017-Apr-15 11:28N 25°46' W 080°11'0 0.0
2017-Apr-15 10:58N 25°46' W 080°11'0 0.0
2017-Apr-15 10:28N 25°46' W 080°11'0 0.0
2017-Apr-15 09:58N 25°46' W 080°11'0 0.0
2017-Apr-15 09:29N 25°46' W 080°11'1 2.2
2017-Apr-15 09:00N 25°46' W 080°10'4 8.1
2017-Apr-15 08:30N 25°46' W 080°05'4 7.4
2017-Apr-15 08:00N 25°46' W 080°01'713.5
2017-Apr-15 07:30N 25°39' W 080°00'816.8
2017-Apr-15 07:00N 25°31' W 079°59'5285.4
2017-Apr-15 07:00N 25°30' W 079°54'817.0 070 / 251019.010.8 25.0 28.0
2017-Apr-15 06:30N 25°23' W 079°59'109 5.3
2017-Apr-14 10:00N 24°18' W 081°36'   070 / 201017.0 5.4 25.0 24.0
Track history (hours):
 
Tides and Currents Weather Stations Pressure Air Temp Water Temp Dewpoint Dewpoint Depression Visibility Wind Speed Wind Dir Waves Ship Positions

Crystal Serenity

Operator: Crystal Cruises

Last reported at 2017-Apr-24 08:00 UTC. Time now 2017-Apr-24 11:17 UTC.
Position N 09°06' W 084°48'.

Length 250 m; draft 7.5 m.

Type: Passenger vessel. MMSI: 311536000.

Barometer 1009.0 mb
Air temperature 30.0 ° C

Date/timePositionNaut miles runAvg speedWind from/ knotsBaromVisibWave heightAir tempDewpointWater temp
2017-Apr-24 08:00N 09°06' W 084°48'27 6.6 1009.0 30.0
2017-Apr-24 04:00N 08°54' W 084°24'72 3.0 270 / 51008.010.8 28.0 28.0
2017-Apr-23 04:00N 08°00' W 083°36'6410.7 250 / 51008.010.8 28.0 26.0
2017-Apr-22 22:00N 07°24' W 082°42'6115.4 200 / 151008.0 5.4 30.0 28.0
2017-Apr-22 18:00N 06°54' W 081°48'8311.9 150 / 101011.010.8 31.0 28.0
2017-Apr-22 11:00N 06°54' W 080°24'1211.9 090 / 51010.0 5.4 27.0 27.0
2017-Apr-22 10:00N 06°54' W 080°12'8612.3 1011.0 28.0
2017-Apr-22 03:00N 08°06' W 079°24'48 8.1 180 / 151015.010.8 27.0 27.0
2017-Apr-21 21:00N 08°54' W 079°30'0 0.0 140 / 81009.010.8 32.0 28.0
2017-Apr-21 03:00N 08°54' W 079°30'27 2.8 180 / 101010.0 28.0 28.0
2017-Apr-20 17:06N 09°11' W 079°52'2 6.3
2017-Apr-20 16:43N 09°12' W 079°54'1 6.1
2017-Apr-20 16:29N 09°13' W 079°55'2 3.4
2017-Apr-20 15:52N 09°15' W 079°55'0 0.0
2017-Apr-20 15:26N 09°15' W 079°55'0 0.0
2017-Apr-20 15:01N 09°15' W 079°55'0 0.0
2017-Apr-20 14:28N 09°15' W 079°55'1 1.4
2017-Apr-20 13:30N 09°16' W 079°55'0 0.4
2017-Apr-20 12:46N 09°16' W 079°55'0 0.4
2017-Apr-20 12:21N 09°17' W 079°55'0 1.1
2017-Apr-20 12:00N 09°17' W 079°55'2 4.1
2017-Apr-20 11:30N 09°19' W 079°55'3 5.4
2017-Apr-20 11:00N 09°22' W 079°55'2 4.9
2017-Apr-20 10:30N 09°24' W 079°55'712.7
2017-Apr-20 09:59N 09°30' W 079°53'2512.7
2017-Apr-20 08:00N 09°42' W 079°30'10921.8 250 / 91012.010.8 28.0 28.0
2017-Apr-20 03:00N 10°06' W 077°42'9518.9 020 / 101015.010.8 30.0 30.0
2017-Apr-19 22:00N 10°12' W 076°06'160 8.4 300 / 121011.0 5.4 30.0 28.0
2017-Apr-19 03:00N 12°48' W 075°30'7314.6 090 / 281013.010.8 28.0 28.0
2017-Apr-18 22:00N 14°00' W 075°18'9719.3 080 / 281017.0 5.4 28.0 27.0
2017-Apr-18 17:00N 15°36' W 075°06'10918.2 090 / 251015.0 5.4 28.0 28.0
2017-Apr-18 11:00N 17°24' W 074°48'18020.0 090 / 231014.0 5.4 26.0 27.0
2017-Apr-18 02:00N 20°18' W 074°00'6716.7 050 / 301018.010.8 26.0 26.0
2017-Apr-17 22:00N 20°54' W 075°00'21519.6 070 / 301015.0 5.4 26.0 25.0
2017-Apr-17 11:00N 22°36' W 078°24'3316.5 090 / 271017.0 5.4 26.0 25.0
2017-Apr-17 09:00N 22°54' W 078°54'13819.7 090 / 261016.0 25.0
2017-Apr-17 02:00N 24°00' W 081°06'100 6.2 090 / 251018.0 5.4 26.0 26.0
2017-Apr-16 10:00N 22°24' W 081°36'122122.0 100 / 201018.0 5.4 26.0 25.0
2017-Apr-16 09:00N 24°24' W 081°12'9112.2 100 / 201022.0 25.0
2017-Apr-16 01:32N 25°28' W 080°01'115.1
2017-Apr-16 01:27N 25°29' W 080°01'715.2
2017-Apr-16 01:00N 25°36' W 080°01'713.8
2017-Apr-16 00:30N 25°43' W 080°02'4 8.7
2017-Apr-16 00:01N 25°46' W 080°06'3 6.8
2017-Apr-15 23:30N 25°46' W 080°10'1 2.3
2017-Apr-15 23:00N 25°46' W 080°11'0 0.0
2017-Apr-15 22:28N 25°46' W 080°11'0 0.0
2017-Apr-15 21:58N 25°46' W 080°11'0 0.0
2017-Apr-15 21:28N 25°46' W 080°11'0 0.0
2017-Apr-15 20:58N 25°46' W 080°11'0 0.0
2017-Apr-15 20:28N 25°46' W 080°11'0 0.0
2017-Apr-15 19:58N 25°46' W 080°11'0 0.0
2017-Apr-15 19:28N 25°46' W 080°11'0 0.0
2017-Apr-15 18:58N 25°46' W 080°11'0 0.0
2017-Apr-15 18:28N 25°46' W 080°11'0 0.0
2017-Apr-15 17:58N 25°46' W 080°11'0 0.0
2017-Apr-15 17:28N 25°46' W 080°11'0 0.0
2017-Apr-15 16:58N 25°46' W 080°11'0 0.0
2017-Apr-15 16:28N 25°46' W 080°11'0 0.0
2017-Apr-15 15:55N 25°46' W 080°11'0 0.0
2017-Apr-15 15:28N 25°46' W 080°11'0 0.0
2017-Apr-15 14:58N 25°46' W 080°11'0 0.0
2017-Apr-15 14:25N 25°46' W 080°11'0 0.0
2017-Apr-15 13:28N 25°46' W 080°11'0 0.0
2017-Apr-15 12:58N 25°46' W 080°11'0 0.0
2017-Apr-15 12:28N 25°46' W 080°11'0 0.0
2017-Apr-15 11:58N 25°46' W 080°11'0 0.0
2017-Apr-15 11:28N 25°46' W 080°11'0 0.0
2017-Apr-15 10:58N 25°46' W 080°11'0 0.0
2017-Apr-15 10:28N 25°46' W 080°11'0 0.0
2017-Apr-15 09:58N 25°46' W 080°11'0 0.0
2017-Apr-15 09:29N 25°46' W 080°11'1 2.2
2017-Apr-15 09:00N 25°46' W 080°10'4 8.1
2017-Apr-15 08:30N 25°46' W 080°05'4 7.4
2017-Apr-15 08:00N 25°46' W 080°01'713.5
2017-Apr-15 07:30N 25°39' W 080°00'816.8
2017-Apr-15 07:00N 25°31' W 079°59'5285.4
2017-Apr-15 07:00N 25°30' W 079°54'817.0 070 / 251019.010.8 25.0 28.0
2017-Apr-15 06:30N 25°23' W 079°59'109 5.3
2017-Apr-14 10:00N 24°18' W 081°36'   070 / 201017.0 5.4 25.0 24.0

Dump ship's entire track history